Time;durP1;ratioP1;P1;durP2;ratioP2;P2;SDS_P1;SDS_P2;PMS_P1;PMS_P2;Temp;Humidity;BMP_temperature;BMP_pressure;BME280_temperature;BME280_humidity;BME280_pressure;Samples;Min_cycle;Max_cycle;Signal;HPM_P1;HPM_P2
2021/01/11 00:00:26;;;;;;;34.65;18.25;;;;;;;-2.58;81.68;100178.14;1750688;82;21162;-59
2021/01/11 00:02:54;;;;;;;35.83;19.65;;;;;;;-2.59;81.68;100180.00;1751554;82;21145;-59
2021/01/11 00:05:24;;;;;;;31.40;18.32;;;;;;;-2.56;81.35;100168.16;1754631;80;21198;-59
2021/01/11 00:07:51;;;;;;;29.12;15.35;;;;;;;-2.56;81.33;100163.66;1691775;83;21170;-59
2021/01/11 00:10:19;;;;;;;26.65;15.43;;;;;;;-2.53;81.05;100156.63;1760335;81;21212;-59
2021/01/11 00:12:46;;;;;;;23.15;12.73;;;;;;;-2.57;80.87;100151.33;1721552;82;21125;-57
2021/01/11 00:15:18;;;;;;;17.77;10.88;;;;;;;-2.59;80.93;100159.18;1750678;80;21293;-57
2021/01/11 00:17:45;;;;;;;21.68;12.15;;;;;;;-2.58;81.03;100162.98;1763385;80;21292;-57
2021/01/11 00:20:14;;;;;;;21.52;12.20;;;;;;;-2.59;80.78;100158.68;1760126;80;21171;-58
2021/01/11 00:22:44;;;;;;;20.27;11.78;;;;;;;-2.63;80.57;100152.53;1731594;80;21126;-58
2021/01/11 00:25:12;;;;;;;22.50;12.68;;;;;;;-2.65;80.27;100156.70;1755411;80;21173;-57
2021/01/11 00:27:41;;;;;;;19.20;11.85;;;;;;;-2.70;80.17;100155.09;1751922;80;21182;-57
2021/01/11 00:30:31;;;;;;;21.62;12.45;;;;;;;-2.75;80.05;100164.09;1763552;80;21150;-57
2021/01/11 00:32:59;;;;;;;21.05;13.38;;;;;;;-2.79;80.05;100166.78;1705222;84;21909;-57
2021/01/11 00:35:26;;;;;;;21.97;13.03;;;;;;;-2.78;80.22;100170.28;1704796;83;21164;-56
2021/01/11 00:37:53;;;;;;;23.62;13.80;;;;;;;-2.78;80.02;100174.27;1704954;84;21143;-57
2021/01/11 00:40:21;;;;;;;27.27;15.25;;;;;;;-2.83;79.73;100173.95;1703882;84;21187;-57
2021/01/11 00:42:48;;;;;;;26.42;14.95;;;;;;;-2.91;79.73;100166.87;1704878;84;21179;-57
2021/01/11 00:49:33;;;;;;;28.55;16.23;;;;;;;-2.96;80.11;100166.55;1679438;83;21102;-57
2021/01/11 00:52:04;;;;;;;28.15;16.12;;;;;;;-3.11;79.77;100174.94;1704891;84;21740;-57
2021/01/11 00:54:32;;;;;;;29.92;16.65;;;;;;;-3.19;79.90;100177.66;1651937;84;21162;-57
2021/01/11 00:57:01;;;;;;;33.10;17.98;;;;;;;-3.22;80.01;100191.29;1674569;84;21179;-57
2021/01/11 00:59:50;;;;;;;39.10;21.73;;;;;;;-3.23;80.23;100184.33;1769942;79;22920;-57
2021/01/11 01:02:20;;;;;;;43.35;24.35;;;;;;;-3.29;80.28;100191.65;1699557;82;21389;-57
2021/01/11 01:04:48;;;;;;;47.98;24.85;;;;;;;-3.31;80.10;100201.65;1697086;83;21425;-57
2021/01/11 01:07:15;;;;;;;44.00;22.22;;;;;;;-3.33;79.93;100202.34;1705695;83;21384;-57
2021/01/11 01:09:43;;;;;;;44.05;22.98;;;;;;;-3.35;80.07;100202.98;1693437;85;21228;-57
2021/01/11 01:12:10;;;;;;;38.42;20.45;;;;;;;-3.33;80.24;100203.14;1695419;83;21148;-57
2021/01/11 01:14:40;;;;;;;47.62;23.02;;;;;;;-3.28;80.40;100201.30;1708134;83;21226;-56
2021/01/11 01:17:07;;;;;;;49.50;25.15;;;;;;;-3.31;80.51;100198.49;1689073;83;21137;-57
2021/01/11 01:19:35;;;;;;;49.65;23.75;;;;;;;-3.34;80.67;100190.02;1716011;83;21320;-57
2021/01/11 01:22:04;;;;;;;51.65;26.20;;;;;;;-3.37;80.78;100191.70;1719166;83;21561;-57
2021/01/11 01:24:32;;;;;;;53.78;26.93;;;;;;;-3.37;81.02;100187.70;1714036;83;21125;-57
2021/01/11 01:27:00;;;;;;;48.40;24.32;;;;;;;-3.29;81.35;100194.31;1715431;83;21298;-57
2021/01/11 01:29:27;;;;;;;49.13;25.65;;;;;;;-3.22;81.27;100201.44;1695671;83;21186;-58
2021/01/11 01:31:55;;;;;;;49.33;25.37;;;;;;;-3.19;81.06;100204.28;1695912;83;21526;-57
2021/01/11 01:34:23;;;;;;;47.88;25.10;;;;;;;-3.20;81.11;100193.30;1700147;83;21192;-57
2021/01/11 01:36:50;;;;;;;52.33;26.30;;;;;;;-3.21;81.24;100187.63;1667876;85;21184;-59
2021/01/11 01:39:18;;;;;;;49.98;24.10;;;;;;;-3.17;81.29;100199.60;1719677;83;21177;-57
2021/01/11 01:41:47;;;;;;;57.10;26.40;;;;;;;-3.11;81.37;100198.91;1722098;83;21273;-57
2021/01/11 01:44:15;;;;;;;49.77;22.22;;;;;;;-3.06;81.41;100192.57;1717462;83;21310;-57
2021/01/11 01:46:43;;;;;;;49.53;25.15;;;;;;;-2.99;81.67;100197.53;1719993;83;21138;-57
2021/01/11 01:49:11;;;;;;;52.73;25.95;;;;;;;-2.93;81.53;100202.66;1688398;83;21763;-56
2021/01/11 01:51:39;;;;;;;48.15;24.72;;;;;;;-2.91;81.58;100198.84;1712389;83;21313;-57
2021/01/11 01:54:07;;;;;;;48.02;22.93;;;;;;;-2.87;81.60;100205.45;1719422;83;21725;-57
2021/01/11 01:56:35;;;;;;;48.52;24.20;;;;;;;-2.79;81.68;100202.75;1721517;83;21315;-56
2021/01/11 01:59:04;;;;;;;47.65;23.32;;;;;;;-2.74;81.63;100201.73;1699887;83;21201;-56
2021/01/11 02:01:35;;;;;;;42.90;22.48;;;;;;;-2.70;81.64;100208.38;1687451;84;21198;-56
2021/01/11 02:04:03;;;;;;;43.42;21.62;;;;;;;-2.66;81.72;100200.34;1681846;84;21366;-57
2021/01/11 02:06:34;;;;;;;44.90;23.47;;;;;;;-2.62;81.80;100210.14;1683701;84;21161;-57
2021/01/11 02:09:11;;;;;;;47.33;23.87;;;;;;;-2.56;81.82;100216.97;1683274;84;21189;-57
2021/01/11 02:11:47;;;;;;;49.03;23.95;;;;;;;-2.53;81.87;100208.61;1685038;84;21315;-57
2021/01/11 02:14:41;;;;;;;45.67;23.83;;;;;;;-2.43;81.75;100206.20;1703199;84;21145;-57
2021/01/11 02:17:16;;;;;;;44.42;23.50;;;;;;;-2.36;81.81;100211.99;1692666;83;21287;-57
2021/01/11 02:20:22;;;;;;;43.38;23.05;;;;;;;-2.27;81.71;100191.45;1685631;84;21890;-57
2021/01/11 02:23:14;;;;;;;42.88;23.50;;;;;;;-2.20;81.56;100188.39;1684442;84;21149;-58
2021/01/11 02:25:45;;;;;;;42.62;22.27;;;;;;;-2.15;81.41;100184.16;1681793;84;21154;-57
2021/01/11 02:28:37;;;;;;;35.50;19.85;;;;;;;;;;1684606;84;21347;-57
2021/01/11 02:31:05;;;;;;;35.58;20.32;;;;;;;-2.09;81.26;100179.44;1682996;84;21141;-57
2021/01/11 02:33:33;;;;;;;33.63;20.23;;;;;;;-2.08;81.10;100174.94;1664557;84;21340;-58
2021/01/11 02:36:06;;;;;;;33.90;19.80;;;;;;;-2.06;81.23;100172.94;1683515;84;21178;-57
2021/01/11 02:38:34;;;;;;;32.10;17.87;;;;;;;-2.00;81.27;100168.20;1700363;84;21328;-57
2021/01/11 02:41:02;;;;;;;30.48;18.40;;;;;;;-1.94;81.12;100171.97;1694953;84;21165;-58
2021/01/11 02:43:30;;;;;;;34.05;18.98;;;;;;;-1.91;80.99;100171.64;1689710;84;21322;-57
2021/01/11 02:45:58;;;;;;;34.27;18.87;;;;;;;-1.92;80.88;100165.47;1683296;84;21528;-59
2021/01/11 02:48:35;;;;;;;29.48;16.67;;;;;;;-1.92;80.76;100157.47;1698086;84;21303;-57
2021/01/11 02:51:23;;;;;;;26.33;15.63;;;;;;;-1.91;80.87;100163.11;1682819;84;21700;-57
2021/01/11 02:54:18;;;;;;;41.98;22.37;;;;;;;-1.88;80.75;100160.10;1680975;84;21590;-57
2021/01/11 02:57:09;;;;;;;41.80;22.30;;;;;;;-1.86;80.79;100147.89;1696101;84;21624;-57
2021/01/11 02:59:48;;;;;;;40.65;22.17;;;;;;;-1.88;80.61;100138.75;1687920;83;21299;-57
2021/01/11 03:02:17;;;;;;;31.87;19.77;;;;;;;-1.86;80.58;100134.05;1673921;85;21243;-58
2021/01/11 03:04:45;;;;;;;30.45;18.92;;;;;;;-1.89;80.55;100131.75;1704480;83;21604;-57
2021/01/11 03:07:13;;;;;;;28.45;16.50;;;;;;;-1.89;80.78;100129.58;1680010;85;21196;-57
2021/01/11 03:09:45;;;;;;;23.22;13.93;;;;;;;-1.85;80.91;100137.05;1707214;83;21181;-57
2021/01/11 03:12:13;;;;;;;24.32;14.30;;;;;;;-1.82;80.77;100142.52;1657661;85;21176;-57
2021/01/11 03:14:41;;;;;;;23.00;13.60;;;;;;;-1.80;80.67;100146.66;1710799;83;21554;-57
2021/01/11 03:17:09;;;;;;;20.65;12.35;;;;;;;-1.73;80.66;100147.58;1709649;83;21117;-57
2021/01/11 03:19:38;;;;;;;18.75;12.33;;;;;;;-1.66;80.50;100158.35;1717192;83;21169;-57
2021/01/11 03:22:06;;;;;;;23.55;14.23;;;;;;;-1.67;80.36;100162.05;1699739;83;21133;-57
2021/01/11 03:24:34;;;;;;;24.43;14.78;;;;;;;-1.66;80.11;100165.03;1704001;83;21165;-57
2021/01/11 03:27:02;;;;;;;26.35;16.87;;;;;;;-1.66;80.07;100169.86;1701602;83;21442;-59
2021/01/11 03:29:30;;;;;;;28.40;17.30;;;;;;;-1.69;80.01;100168.06;1687258;83;21130;-57
2021/01/11 03:31:59;;;;;;;28.50;17.10;;;;;;;-1.70;80.08;100167.77;1697532;83;21177;-56
2021/01/11 03:34:27;;;;;;;26.73;16.15;;;;;;;-1.71;80.09;100176.27;1694385;83;21605;-56
2021/01/11 03:36:56;;;;;;;30.10;18.10;;;;;;;-1.73;80.02;100179.61;1701034;83;21206;-56
2021/01/11 03:39:24;;;;;;;31.35;19.75;;;;;;;-1.71;80.13;100178.95;1691869;83;21181;-57
2021/01/11 03:41:52;;;;;;;32.33;19.73;;;;;;;-1.68;80.12;100181.24;1658855;85;21297;-57
2021/01/11 03:44:20;;;;;;;32.48;19.73;;;;;;;-1.67;80.09;100176.23;1710647;83;21218;-57
2021/01/11 03:46:48;;;;;;;29.02;18.32;;;;;;;-1.65;80.09;100172.86;1698812;83;21307;-57
2021/01/11 03:49:17;;;;;;;32.70;19.12;;;;;;;-1.61;80.13;100180.84;1690446;83;21164;-57
2021/01/11 03:52:05;;;;;;;38.65;22.02;;;;;;;-1.63;80.03;100182.04;1688696;83;21643;-57
2021/01/11 03:54:33;;;;;;;35.40;21.30;;;;;;;-1.66;80.14;100179.20;1701057;84;21149;-57
2021/01/11 03:57:01;;;;;;;36.58;20.50;;;;;;;-1.64;80.09;100185.71;1685598;84;21224;-57
2021/01/11 03:59:29;;;;;;;32.63;18.52;;;;;;;-1.68;79.96;100187.92;1688100;84;21314;-57
2021/01/11 04:01:57;;;;;;;30.92;18.20;;;;;;;-1.74;79.95;100188.66;1689046;84;21300;-57
2021/01/11 04:04:25;;;;;;;36.25;19.98;;;;;;;-1.78;80.04;100194.53;1702431;83;21133;-57
2021/01/11 04:06:54;;;;;;;36.17;20.27;;;;;;;-1.77;80.22;100187.66;1688835;84;21206;-57
2021/01/11 04:09:22;;;;;;;37.42;20.88;;;;;;;-1.78;80.33;100188.69;1689488;84;21166;-57
2021/01/11 04:11:50;;;;;;;37.93;20.90;;;;;;;-1.77;80.23;100194.33;1684996;84;21454;-57
2021/01/11 04:14:20;;;;;;;35.05;19.90;;;;;;;-1.78;80.32;100200.70;1699888;84;21161;-57
2021/01/11 04:16:53;;;;;;;31.87;19.50;;;;;;;-1.80;80.47;100197.36;1687226;84;21331;-57
2021/01/11 04:19:21;;;;;;;31.37;19.77;;;;;;;-1.79;80.47;100191.02;1662580;84;21972;-57
2021/01/11 04:21:49;;;;;;;32.35;19.10;;;;;;;-1.78;80.61;100199.86;1703835;84;21385;-57
2021/01/11 04:24:17;;;;;;;29.98;18.35;;;;;;;-1.73;80.63;100202.30;1697289;84;21145;-57
2021/01/11 04:26:45;;;;;;;31.85;19.85;;;;;;;-1.67;80.62;100210.94;1702867;84;21757;-57
2021/01/11 04:29:13;;;;;;;35.05;19.50;;;;;;;-1.67;80.60;100202.93;1699923;84;21133;-56
2021/01/11 04:31:41;;;;;;;35.68;20.23;;;;;;;-1.63;80.53;100198.06;1683234;84;21219;-57
2021/01/11 04:34:10;;;;;;;31.02;18.75;;;;;;;-1.62;80.53;100199.19;1690672;84;21589;-56
2021/01/11 04:36:38;;;;;;;32.25;19.87;;;;;;;-1.59;80.62;100193.98;1687434;84;21161;-57
2021/01/11 04:39:06;;;;;;;29.82;18.70;;;;;;;-1.52;80.48;100194.41;1692625;84;21295;-56
2021/01/11 04:41:35;;;;;;;32.45;18.60;;;;;;;-1.45;80.42;100196.37;1703850;84;21222;-57
2021/01/11 04:44:07;;;;;;;29.95;18.07;;;;;;;-1.47;80.23;100193.04;1686265;84;21295;-57
2021/01/11 04:46:35;;;;;;;33.95;18.45;;;;;;;-1.45;80.16;100199.84;1697467;84;21342;-57
2021/01/11 04:49:05;;;;;;;32.85;19.75;;;;;;;-1.41;80.10;100197.64;1691481;84;21488;-57
2021/01/11 04:51:33;;;;;;;34.30;19.75;;;;;;;-1.42;79.97;100196.00;1698819;84;21303;-57
2021/01/11 04:54:01;;;;;;;31.05;18.17;;;;;;;-1.42;79.85;100197.34;1686701;83;21540;-57
2021/01/11 04:56:29;;;;;;;30.10;18.42;;;;;;;-1.42;79.87;100194.67;1673775;82;21702;-57
2021/01/11 05:01:36;;;;;;;30.75;19.30;;;;;;;-1.44;79.81;100192.67;1756283;79;23192;-57
2021/01/11 05:04:05;;;;;;;33.00;19.52;;;;;;;-1.48;79.77;100186.86;1717523;83;21192;-57
2021/01/11 05:06:33;;;;;;;33.75;20.30;;;;;;;-1.51;79.87;100184.56;1711463;83;21688;-57
2021/01/11 05:09:07;;;;;;;32.25;19.87;;;;;;;-1.46;80.00;100186.19;1693718;85;21318;-56
2021/01/11 05:11:35;;;;;;;30.62;18.98;;;;;;;-1.42;79.93;100190.66;1706639;83;21726;-57
2021/01/11 05:14:04;;;;;;;32.67;18.20;;;;;;;-1.46;79.89;100184.02;1711266;83;21267;-57
2021/01/11 05:16:32;;;;;;;29.12;18.35;;;;;;;-1.48;79.73;100184.70;1702069;83;21203;-57
2021/01/11 05:19:25;;;;;;;31.70;19.50;;;;;;;-1.55;79.70;100189.94;1696375;83;21306;-57
2021/01/11 05:21:53;;;;;;;29.57;18.52;;;;;;;-1.64;79.95;100187.05;1699754;83;21254;-57
2021/01/11 05:24:39;;;;;;;31.85;20.37;;;;;;;-1.67;80.22;100189.58;1720603;83;21161;-57
2021/01/11 05:27:08;;;;;;;30.20;19.35;;;;;;;-1.63;80.30;100196.19;1717632;83;21283;-58
2021/01/11 05:29:38;;;;;;;28.17;18.85;;;;;;;-1.65;80.30;100192.89;1721027;83;21603;-57
2021/01/11 05:32:08;;;;;;;26.23;17.23;;;;;;;-1.67;80.25;100197.59;1697398;83;21335;-57
2021/01/11 05:34:52;;;;;;;29.65;17.55;;;;;;;-1.69;80.30;100193.42;1708995;83;21153;-57
2021/01/11 05:37:36;;;;;;;29.63;18.05;;;;;;;-1.74;80.49;100198.50;1698437;83;21148;-58
2021/01/11 05:40:16;;;;;;;30.60;18.57;;;;;;;-1.71;80.58;100201.62;1695653;83;21193;-57
2021/01/11 05:42:53;;;;;;;29.18;18.35;;;;;;;-1.69;80.55;100198.77;1713518;83;21715;-57
2021/01/11 05:45:28;;;;;;;28.52;17.92;;;;;;;-1.74;80.57;100200.66;1712327;83;21176;-58
2021/01/11 05:48:08;;;;;;;28.07;18.40;;;;;;;-1.77;80.76;100201.00;1719317;83;21288;-58
2021/01/11 05:50:48;;;;;;;28.23;18.35;;;;;;;-1.74;80.88;100207.34;1697004;83;21220;-58
2021/01/11 05:53:23;;;;;;;27.45;18.02;;;;;;;-1.73;80.89;100208.97;1702298;83;21173;-58
2021/01/11 05:55:54;;;;;;;28.27;18.05;;;;;;;-1.71;80.79;100210.97;1707309;83;21275;-58
2021/01/11 05:58:25;;;;;;;28.73;17.57;;;;;;;-1.71;80.91;100207.47;1700009;83;21703;-58
2021/01/11 06:00:53;;;;;;;29.07;18.55;;;;;;;-1.71;80.89;100211.47;1696821;83;21159;-57
2021/01/11 06:03:21;;;;;;;30.08;18.82;;;;;;;-1.65;80.79;100214.24;1703149;83;21153;-57
2021/01/11 06:05:50;;;;;;;70.83;36.25;;;;;;;-1.64;80.70;100211.07;1718957;83;21181;-58
2021/01/11 06:08:18;;;;;;;112.60;54.77;;;;;;;-1.70;80.66;100212.61;1719918;83;21160;-59
2021/01/11 06:10:46;;;;;;;44.93;27.13;;;;;;;-1.74;80.76;100216.68;1708510;83;21315;-59
2021/01/11 06:13:15;;;;;;;73.87;40.15;;;;;;;-1.77;81.00;100214.88;1715240;83;21148;-59
2021/01/11 06:15:44;;;;;;;61.55;31.25;;;;;;;-1.74;80.98;100215.84;1697489;83;21337;-59
2021/01/11 06:18:14;;;;;;;61.23;32.67;;;;;;;-1.74;81.02;100215.34;1716543;83;21141;-59
2021/01/11 06:20:44;;;;;;;39.50;21.17;;;;;;;-1.76;81.15;100224.02;1717069;83;21153;-59
2021/01/11 06:23:29;;;;;;;34.88;21.70;;;;;;;-1.74;81.11;100223.85;1720469;83;21303;-59
2021/01/11 06:25:57;;;;;;;32.80;20.08;;;;;;;-1.72;81.15;100224.48;1707051;83;21360;-59
2021/01/11 06:28:31;;;;;;;29.63;17.30;;;;;;;-1.72;81.15;100231.16;1684308;85;21299;-58
2021/01/11 06:31:14;;;;;;;29.07;18.35;;;;;;;-1.66;80.99;100232.59;1668542;85;21192;-58
2021/01/11 06:33:43;;;;;;;27.22;16.93;;;;;;;-1.64;80.95;100226.59;1699071;83;21287;-58
2021/01/11 06:36:31;;;;;;;26.48;17.30;;;;;;;-1.61;81.03;100228.05;1708921;83;21578;-58
2021/01/11 06:39:07;;;;;;;27.62;17.32;;;;;;;-1.61;80.94;100230.23;1712286;83;21291;-59
2021/01/11 06:41:35;;;;;;;29.72;18.05;;;;;;;-1.60;80.97;100226.55;1695741;83;21329;-58
2021/01/11 06:44:06;;;;;;;28.85;17.55;;;;;;;-1.55;81.00;100228.66;1699048;83;21128;-58
2021/01/11 06:46:45;;;;;;;28.87;18.20;;;;;;;-1.53;80.91;100226.66;1708513;83;21315;-58
2021/01/11 06:49:27;;;;;;;27.15;17.45;;;;;;;-1.53;80.86;100227.98;1722732;83;21672;-59
2021/01/11 06:52:08;;;;;;;29.37;17.57;;;;;;;-1.48;81.00;100225.58;1694125;85;21597;-58
2021/01/11 06:54:41;;;;;;;29.18;18.92;;;;;;;-1.43;80.93;100223.20;1702165;83;21605;-59
2021/01/11 06:57:13;;;;;;;31.45;19.60;;;;;;;-1.38;80.92;100224.80;1720969;83;21316;-58
2021/01/11 06:59:41;;;;;;;31.42;18.85;;;;;;;-1.35;80.71;100219.13;1722511;83;21318;-59
2021/01/11 07:02:25;;;;;;;30.97;19.12;;;;;;;-1.33;80.41;100218.92;1715678;83;21610;-57
2021/01/11 07:04:53;;;;;;;28.77;17.00;;;;;;;-1.38;80.43;100220.00;1700908;83;21613;-57
2021/01/11 07:07:24;;;;;;;29.67;18.07;;;;;;;-1.41;80.54;100225.67;1694048;83;21609;-57
2021/01/11 07:09:58;;;;;;;31.40;18.05;;;;;;;-1.33;80.39;100222.93;1711342;83;21287;-59
2021/01/11 07:12:27;;;;;;;28.55;18.35;;;;;;;-1.41;80.34;100213.66;1722811;83;21281;-56
2021/01/11 07:15:06;;;;;;;35.83;21.40;;;;;;;-1.55;80.68;100213.47;1722897;82;21189;-57
2021/01/11 07:17:43;;;;;;;27.62;18.35;;;;;;;-1.54;80.73;100226.31;1722934;83;21601;-57
2021/01/11 07:20:12;;;;;;;32.80;18.48;;;;;;;-1.54;80.92;100215.64;1711198;83;21608;-58
2021/01/11 07:22:44;;;;;;;56.90;29.95;;;;;;;-1.49;81.09;100220.44;1703091;83;21599;-57
2021/01/11 07:25:21;;;;;;;52.83;28.42;;;;;;;-1.38;80.92;100224.00;1722514;83;21153;-57
2021/01/11 07:27:57;;;;;;;31.25;16.75;;;;;;;-1.31;80.86;100224.93;1722796;83;21149;-56
2021/01/11 07:30:25;;;;;;;28.15;17.45;;;;;;;-1.29;80.67;100225.06;1716014;83;21287;-57
2021/01/11 07:32:54;;;;;;;26.93;16.77;;;;;;;-1.19;80.49;100226.11;1709409;83;21197;-57
2021/01/11 07:35:22;;;;;;;28.70;17.62;;;;;;;-1.15;80.68;100226.07;1704914;82;21177;-57
2021/01/11 07:37:51;;;;;;;26.80;16.42;;;;;;;-1.13;80.62;100230.70;1702930;83;21290;-57
2021/01/11 07:40:21;;;;;;;26.42;16.10;;;;;;;-1.09;80.35;100226.66;1716856;83;21252;-57
2021/01/11 07:42:49;;;;;;;22.85;15.53;;;;;;;-1.12;80.31;100227.03;1698755;83;21274;-57
2021/01/11 07:45:18;;;;;;;26.07;15.50;;;;;;;-1.06;80.23;100228.95;1722619;83;21292;-57
2021/01/11 07:47:51;;;;;;;24.25;16.00;;;;;;;-1.02;80.08;100233.76;1722784;83;21680;-57
2021/01/11 07:50:20;;;;;;;26.37;15.65;;;;;;;-1.00;79.75;100233.59;1703618;82;21158;-57
2021/01/11 07:52:48;;;;;;;28.92;17.67;;;;;;;-1.01;79.72;100230.08;1722594;83;21321;-57
2021/01/11 07:55:16;;;;;;;29.10;17.92;;;;;;;-0.98;79.79;100230.70;1711538;83;21129;-57
2021/01/11 07:57:44;;;;;;;27.65;16.80;;;;;;;-0.93;79.71;100233.17;1680617;83;21169;-56
2021/01/11 08:00:14;;;;;;;29.50;19.07;;;;;;;-0.88;79.45;100239.27;1721605;83;21169;-56
2021/01/11 08:02:46;;;;;;;48.80;30.02;;;;;;;-0.81;79.29;100245.53;1672828;84;21191;-56
2021/01/11 08:05:21;;;;;;;43.33;26.40;;;;;;;-0.85;79.18;100235.72;1693056;84;21141;-56
2021/01/11 08:07:50;;;;;;;49.67;27.58;;;;;;;-0.86;79.18;100238.09;1690073;84;21173;-56
2021/01/11 08:10:24;;;;;;;42.38;24.55;;;;;;;-0.79;79.07;100246.19;1695746;84;21149;-56
2021/01/11 08:12:52;;;;;;;34.65;21.42;;;;;;;-0.76;79.14;100239.12;1708940;84;21292;-57
2021/01/11 08:15:20;;;;;;;35.10;22.02;;;;;;;-0.73;78.92;100246.77;1708535;83;21704;-57
2021/01/11 08:17:48;;;;;;;29.37;18.60;;;;;;;-0.73;78.91;100243.59;1708451;84;21174;-57
2021/01/11 08:20:25;;;;;;;35.55;20.57;;;;;;;-0.76;78.97;100256.00;1708027;84;21316;-57
2021/01/11 08:22:53;;;;;;;28.85;18.23;;;;;;;-0.72;78.92;100253.28;1708576;84;21174;-59
2021/01/11 08:25:21;;;;;;;33.67;21.33;;;;;;;-0.76;78.82;100246.64;1708283;83;21325;-57
2021/01/11 08:27:51;;;;;;;29.20;20.00;;;;;;;-0.74;78.57;100251.28;1712226;83;21154;-57
2021/01/11 08:30:24;;;;;;;37.93;21.90;;;;;;;-0.81;78.51;100254.38;1708492;84;21300;-57
2021/01/11 08:32:51;;;;;;;28.20;17.37;;;;;;;-0.88;78.75;100256.14;1708962;84;21599;-57
2021/01/11 08:35:21;;;;;;;26.55;16.45;;;;;;;-0.85;78.91;100257.64;1691790;84;21310;-57
2021/01/11 08:37:51;;;;;;;22.25;14.87;;;;;;;-0.79;78.63;100263.06;1680759;85;21727;-58
2021/01/11 08:40:30;;;;;;;23.92;15.28;;;;;;;-0.88;78.91;100262.82;1657861;84;21193;-58
2021/01/11 08:43:21;;;;;;;24.75;15.40;;;;;;;-0.90;78.99;100259.52;1680873;85;21170;-58
2021/01/11 08:45:53;;;;;;;23.05;13.93;;;;;;;-0.92;79.01;100266.08;1699276;84;21316;-58
2021/01/11 08:48:25;;;;;;;24.82;14.73;;;;;;;-0.92;79.31;100263.40;1697304;84;21182;-56
2021/01/11 08:50:57;;;;;;;21.73;14.70;;;;;;;-0.95;79.37;100257.89;1700353;84;21775;-57
2021/01/11 08:53:29;;;;;;;20.02;12.30;;;;;;;-0.93;79.31;100253.71;1709097;84;21203;-59
2021/01/11 08:56:12;;;;;;;21.52;13.93;;;;;;;-0.92;79.25;100262.86;1707111;83;21543;-57
2021/01/11 08:58:48;;;;;;;23.62;13.62;;;;;;;-0.97;79.35;100262.61;1709082;84;21589;-57
2021/01/11 09:01:17;;;;;;;25.72;15.58;;;;;;;-0.92;79.38;100264.20;1709986;83;21735;-57
2021/01/11 09:03:55;;;;;;;24.32;15.10;;;;;;;-0.91;79.46;100259.69;1717105;83;21150;-57
2021/01/11 09:06:42;;;;;;;25.82;15.32;;;;;;;-0.90;79.28;100254.17;1717315;83;21121;-56
2021/01/11 09:09:16;;;;;;;;;;;;;;;-0.93;79.36;100257.22;1719661;83;21593;-56
2021/01/11 09:11:46;;;;;;;23.60;14.83;;;;;;;-0.95;79.56;100253.05;1717215;83;20188;-56
2021/01/11 09:14:18;;;;;;;21.65;13.85;;;;;;;-1.00;79.89;100261.64;1717145;83;21561;-56
2021/01/11 09:16:52;;;;;;;28.38;16.97;;;;;;;-0.93;79.85;100257.22;1688429;84;21320;-57
2021/01/11 09:19:21;;;;;;;27.77;18.35;;;;;;;-0.87;79.66;100259.14;1688349;84;21173;-57
2021/01/11 09:22:16;;;;;;;30.72;17.52;;;;;;;-0.89;79.84;100259.84;1661613;85;21168;-57
2021/01/11 09:24:45;;;;;;;19.20;13.20;;;;;;;-0.86;79.98;100251.45;1690102;83;21138;-58
2021/01/11 09:27:13;;;;;;;20.92;13.85;;;;;;;-0.66;79.41;100260.55;1717226;83;21773;-56
2021/01/11 09:29:41;;;;;;;21.62;13.40;;;;;;;-0.66;79.42;100253.87;1717151;83;21585;-56
2021/01/11 09:32:09;;;;;;;16.62;10.88;;;;;;;-0.67;79.56;100251.36;1716972;83;21181;-56
2021/01/11 09:34:37;;;;;;;24.23;14.53;;;;;;;-0.65;79.49;100254.70;1716884;83;21629;-56
2021/01/11 09:37:12;;;;;;;25.10;14.65;;;;;;;-0.61;79.17;100247.97;1716976;83;21181;-56
2021/01/11 09:39:41;;;;;;;20.68;13.68;;;;;;;-0.65;79.37;100247.52;1717026;83;21189;-57
2021/01/11 09:42:10;;;;;;;24.65;15.50;;;;;;;-0.65;79.60;100242.67;1717078;83;21191;-57
2021/01/11 09:44:38;;;;;;;22.67;15.85;;;;;;;-0.56;79.33;100246.38;1716349;83;21133;-57
2021/01/11 09:47:08;;;;;;;21.23;14.38;;;;;;;-0.50;79.18;100244.27;1708884;83;21302;-56
2021/01/11 09:49:37;;;;;;;23.22;15.05;;;;;;;-0.52;79.15;100238.30;1688417;85;21173;-57
2021/01/11 09:52:05;;;;;;;24.90;16.37;;;;;;;-0.37;79.07;100244.12;1661653;85;21517;-55
2021/01/11 09:54:33;;;;;;;25.50;15.68;;;;;;;-0.35;79.07;100235.38;1716851;83;21165;-57
2021/01/11 09:57:01;;;;;;;23.52;16.12;;;;;;;-0.39;79.00;100238.95;1717297;83;21211;-57
2021/01/11 09:59:31;;;;;;;24.87;16.90;;;;;;;-0.36;79.00;100234.58;1717031;83;21287;-57
2021/01/11 10:01:59;;;;;;;25.37;15.98;;;;;;;-0.23;78.85;100234.71;1720150;83;21314;-58
2021/01/11 10:04:28;;;;;;;42.85;24.20;;;;;;;-0.22;79.01;100234.20;1722780;83;21145;-56
2021/01/11 10:08:57;;;;;;;37.35;20.27;;;;;;;-0.13;79.09;100230.37;1822873;77;23361;-57
2021/01/11 10:11:25;;;;;;;39.45;21.55;;;;;;;-0.12;79.00;100232.05;1757994;81;21157;-57
2021/01/11 10:13:54;;;;;;;30.40;18.07;;;;;;;-0.11;78.92;100231.83;1757934;81;21845;-57
2021/01/11 10:16:21;;;;;;;33.23;18.50;;;;;;;-0.10;78.76;100219.29;1757889;81;21568;-56
2021/01/11 10:18:50;;;;;;;42.48;23.05;;;;;;;0.06;78.33;100217.70;1758007;81;21759;-57
2021/01/11 10:21:18;;;;;;;34.85;18.70;;;;;;;0.09;78.22;100212.47;1757991;81;21315;-57
2021/01/11 10:23:46;;;;;;;32.58;18.52;;;;;;;0.04;78.15;100217.59;1718443;81;21160;-57
2021/01/11 10:26:16;;;;;;;39.73;21.45;;;;;;;0.05;78.18;100213.87;1736236;81;21141;-57
2021/01/11 10:28:44;;;;;;;30.70;17.75;;;;;;;0.19;77.71;100211.13;1740614;82;21299;-57
2021/01/11 10:31:12;;;;;;;18.45;12.25;;;;;;;0.18;77.57;100208.12;1736779;81;21591;-56
2021/01/11 10:33:41;;;;;;;18.67;12.58;;;;;;;0.11;77.86;100207.23;1727633;83;21198;-57
2021/01/11 10:36:10;;;;;;;19.52;11.83;;;;;;;0.14;77.50;100201.52;1707906;84;21390;-57
2021/01/11 10:38:38;;;;;;;34.53;17.95;;;;;;;0.15;77.17;100203.66;1727888;83;21625;-57
2021/01/11 10:41:07;;;;;;;39.20;20.95;;;;;;;0.03;77.28;100198.02;1672899;83;21639;-56
2021/01/11 10:43:35;;;;;;;28.80;18.73;;;;;;;-0.02;77.36;100198.59;1706126;84;21347;-55
2021/01/11 10:46:03;;;;;;;21.97;13.83;;;;;;;0.04;77.30;100199.66;1726119;83;21206;-57
2021/01/11 10:48:32;;;;;;;23.38;13.45;;;;;;;0.05;76.97;100189.27;1734188;82;21604;-56
2021/01/11 10:51:04;;;;;;;19.07;12.65;;;;;;;-0.03;76.76;100185.38;1737232;81;21160;-56
2021/01/11 10:53:32;;;;;;;20.23;13.20;;;;;;;0.02;76.86;100190.17;1734949;82;21208;-57
2021/01/11 10:56:00;;;;;;;20.50;12.80;;;;;;;0.01;76.99;100196.03;1737108;82;21179;-56
2021/01/11 10:58:29;;;;;;;21.40;14.03;;;;;;;-0.09;77.42;100195.02;1737303;82;21169;-57
2021/01/11 11:00:58;;;;;;;24.18;15.30;;;;;;;-0.06;77.57;100193.80;1724856;82;21211;-57
2021/01/11 11:03:26;;;;;;;25.75;16.25;;;;;;;-0.06;77.61;100192.46;1707673;84;21192;-56
2021/01/11 11:05:55;;;;;;;28.77;17.67;;;;;;;0.01;77.51;100194.69;1691716;84;21347;-57
2021/01/11 11:08:23;;;;;;;21.55;14.90;;;;;;;0.06;77.42;100194.95;1711481;84;21173;-56
2021/01/11 11:10:52;;;;;;;23.95;15.68;;;;;;;0.03;77.46;100191.33;1716495;83;21261;-56
2021/01/11 11:13:20;;;;;;;20.55;13.90;;;;;;;-0.01;77.52;100194.06;1727791;82;21196;-56
2021/01/11 11:15:48;;;;;;;18.92;12.65;;;;;;;0.04;77.28;100196.98;1740505;82;21318;-56
2021/01/11 11:18:17;;;;;;;15.72;11.08;;;;;;;0.11;77.21;100195.19;1740312;82;21184;-56
2021/01/11 11:20:46;;;;;;;16.32;11.63;;;;;;;0.04;77.44;100189.48;1719903;82;21318;-56
2021/01/11 11:23:16;;;;;;;20.32;12.82;;;;;;;-0.04;77.54;100193.12;1710760;84;21727;-58
2021/01/11 11:25:44;;;;;;;19.60;12.65;;;;;;;-0.02;77.73;100190.56;1710594;84;21692;-56
2021/01/11 11:28:13;;;;;;;18.17;12.15;;;;;;;-0.01;77.57;100188.71;1710603;84;21348;-57
2021/01/11 11:30:43;;;;;;;17.23;12.03;;;;;;;0.06;77.39;100182.08;1710248;84;21174;-56
2021/01/11 11:33:12;;;;;;;16.70;11.83;;;;;;;0.09;77.17;100179.01;1739734;82;21193;-56
2021/01/11 11:35:41;;;;;;;17.57;11.95;;;;;;;0.07;77.35;100176.54;1739935;82;21328;-56
2021/01/11 11:38:09;;;;;;;17.30;11.20;;;;;;;0.03;76.98;100183.80;1739947;82;21176;-56